Time;durP1;ratioP1;P1;durP2;ratioP2;P2;SDS_P1;SDS_P2;PMS_P1;PMS_P2;Temp;Humidity;BMP_temperature;BMP_pressure;BME280_temperature;BME280_humidity;BME280_pressure;Samples;Min_cycle;Max_cycle;Signal;HPM_P1;HPM_P2
2023/01/12 00:01:28;;;;;;;0.60;0.60;;;;;;;2.14;100.00;100604.78;5073154;28;20660;-80
2023/01/12 00:03:55;;;;;;;0.80;0.80;;;;;;;2.15;100.00;100606.56;5093459;28;20194;-79
2023/01/12 00:06:23;;;;;;;0.80;0.80;;;;;;;2.11;100.00;100603.75;5078070;28;20595;-80
2023/01/12 00:08:52;;;;;;;0.73;0.73;;;;;;;2.08;100.00;100604.47;5074792;28;20218;-78
2023/01/12 00:11:20;;;;;;;0.70;0.70;;;;;;;2.07;100.00;100596.72;5079434;28;20608;-80
2023/01/12 00:13:47;;;;;;;0.60;0.60;;;;;;;2.04;100.00;100616.97;5092509;28;20671;-78
2023/01/12 00:19:00;;;;;;;0.60;0.60;;;;;;;2.03;100.00;100628.03;5076487;28;20225;-81
2023/01/12 00:21:27;;;;;;;0.70;0.70;;;;;;;1.98;100.00;100620.97;5073353;28;20197;-80
2023/01/12 00:23:55;;;;;;;0.60;0.60;;;;;;;2.01;100.00;100622.81;5072950;28;20195;-80
2023/01/12 00:26:22;;;;;;;0.63;0.63;;;;;;;1.93;100.00;100596.78;5021345;28;20203;-81
2023/01/12 00:28:49;;;;;;;0.80;0.80;;;;;;;2.07;100.00;100612.91;5088545;28;20202;-80
2023/01/12 00:31:15;;;;;;;0.60;0.60;;;;;;;1.51;100.00;100510.00;5023026;28;20256;-80
2023/01/12 00:33:42;;;;;;;0.70;0.70;;;;;;;2.11;100.00;100603.75;5072810;28;20190;-81
2023/01/12 00:36:13;;;;;;;0.60;0.60;;;;;;;2.17;100.00;100602.44;5080044;28;20864;-82
2023/01/12 00:38:40;;;;;;;0.83;0.83;;;;;;;2.17;100.00;100610.13;5090869;28;20649;-81
2023/01/12 00:41:10;;;;;;;0.90;0.90;;;;;;;2.11;100.00;100607.19;5053877;28;20669;-82
2023/01/12 00:46:29;;;;;;;0.70;0.70;;;;;;;1.91;100.00;100580.50;5036768;28;20616;-80
2023/01/12 00:48:56;;;;;;;0.60;0.60;;;;;;;1.72;100.00;100576.78;5033023;28;20206;-77
2023/01/12 00:51:22;;;;;;;0.70;0.70;;;;;;;1.95;100.00;100591.78;5079072;28;20206;-79
2023/01/12 00:53:49;;;;;;;0.70;0.70;;;;;;;2.13;100.00;100585.16;5092093;28;20203;-79
2023/01/12 00:56:18;;;;;;;0.80;0.80;;;;;;;1.89;100.00;100547.97;5092380;28;20206;-80
2023/01/12 00:58:44;;;;;;;0.70;0.70;;;;;;;2.25;100.00;100588.38;5090403;28;20245;-82
2023/01/12 01:01:11;;;;;;;0.73;0.73;;;;;;;2.27;100.00;100586.81;5056430;28;20668;-82
2023/01/12 01:03:38;;;;;;;0.70;0.70;;;;;;;2.27;100.00;100584.25;5083395;28;20201;-81
2023/01/12 01:06:07;;;;;;;0.50;0.50;;;;;;;2.19;100.00;100587.16;5074492;28;20195;-81
2023/01/12 01:08:36;;;;;;;0.80;0.80;;;;;;;2.16;100.00;100594.66;5077295;28;20299;-81
2023/01/12 01:11:05;;;;;;;0.50;0.50;;;;;;;2.07;100.00;100577.13;5079204;28;20207;-83
2023/01/12 01:13:35;;;;;;;0.80;0.80;;;;;;;1.88;100.00;100565.00;5085642;28;20199;-79
2023/01/12 01:16:03;;;;;;;0.53;0.53;;;;;;;2.11;100.00;100598.63;5081731;28;20210;-79
2023/01/12 01:18:30;;;;;;;0.70;0.70;;;;;;;2.01;100.00;100576.78;5091997;28;20225;-81
2023/01/12 01:20:58;;;;;;;0.60;0.60;;;;;;;2.16;100.00;100587.88;5082419;28;20267;-80
2023/01/12 01:23:26;;;;;;;0.80;0.80;;;;;;;2.29;100.00;100594.53;5090479;28;20288;-80
2023/01/12 01:25:53;;;;;;;0.50;0.50;;;;;;;2.11;100.00;100601.19;5091941;28;20206;-80
2023/01/12 01:28:20;;;;;;;0.63;0.63;;;;;;;2.03;100.00;100594.78;5039626;28;20665;-77
2023/01/12 01:30:48;;;;;;;0.80;0.80;;;;;;;2.14;100.00;100594.56;5071702;28;20673;-81
2023/01/12 01:33:15;;;;;;;0.70;0.70;;;;;;;2.11;100.00;100589.28;5071577;28;20214;-82
2023/01/12 01:35:42;;;;;;;0.50;0.50;;;;;;;2.21;100.00;100581.31;5084095;28;20187;-81
2023/01/12 01:38:09;;;;;;;0.80;0.80;;;;;;;2.15;100.00;100563.09;5091463;28;20229;-79
2023/01/12 01:40:42;;;;;;;0.80;0.80;;;;;;;2.32;100.00;100590.47;5091746;28;20190;-81
2023/01/12 01:43:13;;;;;;;0.70;0.70;;;;;;;2.27;100.00;100591.91;5085464;28;20657;-81
2023/01/12 01:45:41;;;;;;;0.83;0.83;;;;;;;2.27;100.00;100565.47;5088020;28;20688;-82
2023/01/12 01:48:13;;;;;;;0.60;0.60;;;;;;;2.54;100.00;100591.66;5077187;28;20204;-80
2023/01/12 01:50:44;;;;;;;0.70;0.70;;;;;;;2.36;100.00;100576.19;5089882;28;20199;-81
2023/01/12 01:53:18;;;;;;;0.60;0.60;;;;;;;2.26;100.00;100595.28;5091311;28;20202;-80
2023/01/12 01:55:50;;;;;;;0.80;0.80;;;;;;;2.33;100.00;100591.38;5074718;28;20195;-81
2023/01/12 01:58:20;;;;;;;0.53;0.53;;;;;;;2.37;100.00;100599.31;5021602;28;20227;-81
2023/01/12 02:00:46;;;;;;;0.60;0.60;;;;;;;2.25;100.00;100593.50;5074285;28;20206;-78
2023/01/12 02:03:17;;;;;;;0.50;0.50;;;;;;;2.25;100.00;100597.72;5077269;28;20210;-79
2023/01/12 02:05:48;;;;;;;0.40;0.40;;;;;;;2.12;100.00;100606.41;5087833;28;20243;-79
2023/01/12 02:08:21;;;;;;;0.50;0.50;;;;;;;2.18;100.00;100601.63;5087052;28;20202;-82
2023/01/12 02:10:50;;;;;;;0.70;0.70;;;;;;;2.09;100.00;100608.78;5051961;28;20198;-79
2023/01/12 02:16:21;;;;;;;0.60;0.60;;;;;;;2.23;100.00;100600.22;5071144;28;20214;-80
2023/01/12 02:19:11;;;;;;;0.70;0.70;;;;;;;2.32;100.00;100604.97;5071164;28;20307;-81
2023/01/12 02:22:00;;;;;;;0.73;0.73;;;;;;;2.29;100.00;100607.34;5075555;28;20198;-79
2023/01/12 02:24:58;;;;;;;0.80;0.80;;;;;;;2.20;100.00;100605.16;5007707;28;20307;-79
2023/01/12 02:27:50;;;;;;;0.60;0.60;;;;;;;2.27;100.00;100591.91;4930638;29;20250;-77
2023/01/12 02:30:56;;;;;;;0.50;0.50;;;;;;;2.31;100.00;100603.22;4881036;29;20691;-81
2023/01/12 02:33:39;;;;;;;0.63;0.63;;;;;;;2.32;100.00;100589.63;4874974;29;20209;-80
2023/01/12 02:36:15;;;;;;;0.60;0.60;;;;;;;2.42;100.00;100584.22;4874623;29;20216;-81
2023/01/12 02:38:49;;;;;;;0.70;0.70;;;;;;;2.39;100.00;100592.59;4856530;29;20710;-82
2023/01/12 02:42:39;;;;;;;0.60;0.60;;;;;;;2.35;100.00;100584.69;4856646;29;20213;-80
2023/01/12 02:44:22;;;;;;;1.07;1.07;;;;;;;2.18;100.00;100583.72;4856868;29;20232;-81
2023/01/12 02:46:51;;;;;;;0.70;0.70;;;;;;;2.09;100.00;100534.63;4841229;29;20305;-80
2023/01/12 02:49:23;;;;;;;0.83;0.83;;;;;;;2.38;100.00;100570.38;4856642;29;20253;-82
2023/01/12 02:51:53;;;;;;;0.50;0.50;;;;;;;2.34;100.00;100567.56;4865209;29;20621;-79
2023/01/12 02:54:23;;;;;;;0.60;0.60;;;;;;;2.26;100.00;100569.69;4867098;29;20255;-78
2023/01/12 02:56:53;;;;;;;0.60;0.60;;;;;;;2.51;100.00;100592.38;4856295;29;20218;-80
2023/01/12 02:59:24;;;;;;;0.80;0.80;;;;;;;2.41;100.00;100600.34;4858161;29;20222;-80
2023/01/12 03:01:53;;;;;;;0.60;0.60;;;;;;;2.26;100.00;100592.72;4894873;29;20256;-80
2023/01/12 03:04:23;;;;;;;0.60;0.60;;;;;;;2.33;100.00;100582.03;4959814;28;20201;-82
2023/01/12 03:07:23;;;;;;;0.70;0.70;;;;;;;2.40;100.00;100586.69;4991757;28;20214;-79
2023/01/12 03:09:54;;;;;;;0.60;0.60;;;;;;;2.31;100.00;100583.63;5020798;28;20230;-80
2023/01/12 03:12:26;;;;;;;0.60;0.60;;;;;;;2.25;100.00;100590.06;5071827;28;20210;-79
2023/01/12 03:14:55;;;;;;;0.70;0.70;;;;;;;1.93;100.00;100557.56;5088319;28;20202;-80
2023/01/12 03:17:27;;;;;;;0.50;0.50;;;;;;;2.11;100.00;100576.50;5089783;28;20736;-79
2023/01/12 03:20:02;;;;;;;0.80;0.80;;;;;;;2.12;100.00;100585.06;5071857;28;20254;-83
2023/01/12 03:22:31;;;;;;;0.70;0.70;;;;;;;2.14;100.00;100578.38;5073194;28;20206;-83
2023/01/12 03:25:01;;;;;;;0.70;0.70;;;;;;;2.05;100.00;100550.59;5090595;28;20657;-80
2023/01/12 03:27:32;;;;;;;0.60;0.60;;;;;;;2.24;100.00;100581.53;5054717;28;20210;-81
2023/01/12 03:30:00;;;;;;;0.60;0.60;;;;;;;2.30;100.00;100586.09;5088870;28;20229;-80
2023/01/12 03:32:28;;;;;;;0.83;0.83;;;;;;;2.32;100.00;100587.91;5090095;28;20203;-82
2023/01/12 03:34:56;;;;;;;2.03;1.90;;;;;;;2.37;100.00;100573.72;5090384;28;20202;-81
2023/01/12 03:37:28;;;;;;;0.70;0.70;;;;;;;2.30;100.00;100586.09;5082746;28;20202;-79
2023/01/12 03:40:00;;;;;;;0.80;0.80;;;;;;;2.35;100.00;100579.56;5073800;28;20226;-82
2023/01/12 03:42:31;;;;;;;0.60;0.60;;;;;;;2.22;100.00;100570.31;5033221;28;20700;-79
2023/01/12 03:45:12;;;;;;;0.63;0.63;;;;;;;2.15;100.00;100573.31;5089096;28;20564;-80
2023/01/12 03:47:41;;;;;;;0.70;0.70;;;;;;;2.09;100.00;100565.31;5091842;28;20204;-80
2023/01/12 03:50:15;;;;;;;0.80;0.80;;;;;;;2.00;100.00;100554.56;5093467;28;20194;-80
2023/01/12 03:52:45;;;;;;;0.60;0.60;;;;;;;1.91;100.00;100564.28;5093097;28;20280;-80
2023/01/12 03:55:16;;;;;;;0.60;0.60;;;;;;;2.12;100.00;100570.59;5094173;28;20206;-80
2023/01/12 03:57:44;;;;;;;0.80;0.80;;;;;;;2.07;100.00;100571.16;5091768;28;20232;-80
2023/01/12 04:00:13;;;;;;;0.43;0.43;;;;;;;2.13;100.00;100569.81;5090671;28;20225;-81
2023/01/12 04:02:43;;;;;;;1.23;1.23;;;;;;;2.07;100.00;100572.00;5029531;28;20202;-81
2023/01/12 04:05:13;;;;;;;0.77;0.77;;;;;;;2.06;100.00;100569.38;5073347;28;20210;-80
2023/01/12 04:07:40;;;;;;;0.60;0.60;;;;;;;2.12;100.00;100577.38;5086273;28;20198;-82
2023/01/12 04:10:08;;;;;;;0.80;0.80;;;;;;;2.13;100.00;100580.03;5073698;28;20363;-81
2023/01/12 04:12:35;;;;;;;0.60;0.60;;;;;;;2.11;100.00;100571.38;5073522;28;20203;-82
2023/01/12 04:15:01;;;;;;;0.60;0.60;;;;;;;1.97;100.00;100570.63;5073696;28;20203;-83
2023/01/12 04:17:28;;;;;;;0.60;0.60;;;;;;;2.01;100.00;100571.66;5073783;28;20233;-84
2023/01/12 04:19:55;;;;;;;0.80;0.80;;;;;;;2.04;100.00;100571.84;5036545;28;20226;-84
2023/01/12 04:25:08;;;;;;;0.80;0.80;;;;;;;1.79;100.00;100581.47;5073048;28;20198;-82
2023/01/12 04:27:35;;;;;;;0.80;0.80;;;;;;;1.84;100.00;100578.38;5072780;28;20675;-83
2023/01/12 04:30:02;;;;;;;0.73;0.73;;;;;;;1.78;100.00;100575.50;5072878;28;20584;-81
2023/01/12 04:32:29;;;;;;;0.60;0.60;;;;;;;1.62;100.00;100560.06;5077102;28;20212;-82
2023/01/12 04:34:55;;;;;;;0.73;0.73;;;;;;;1.69;100.00;100576.63;5074708;28;20195;-79
2023/01/12 04:37:23;;;;;;;0.80;0.80;;;;;;;1.84;100.00;100582.63;5072714;28;20206;-80
2023/01/12 04:39:50;;;;;;;0.70;0.70;;;;;;;1.82;100.00;100581.66;5051395;28;20634;-80
2023/01/12 04:45:01;;;;;;;0.87;0.87;;;;;;;2.02;100.00;100547.88;5076488;28;20307;-84
2023/01/12 04:47:28;;;;;;;0.80;0.80;;;;;;;2.23;100.00;100572.06;5073716;28;20206;-84
2023/01/12 04:49:54;;;;;;;0.67;0.67;;;;;;;2.16;100.00;100580.22;5035323;28;20201;-82
2023/01/12 04:52:23;;;;;;;0.67;0.67;;;;;;;2.25;100.00;100593.50;5090578;28;20210;-83
2023/01/12 04:54:49;;;;;;;0.63;0.63;;;;;;;2.05;100.00;100594.06;5092782;28;20198;-81
2023/01/12 04:57:16;;;;;;;0.60;0.60;;;;;;;2.13;100.00;100592.81;5088573;28;20199;-82
2023/01/12 04:59:43;;;;;;;0.70;0.70;;;;;;;2.16;100.00;100585.31;5072255;28;20265;-83
2023/01/12 05:02:10;;;;;;;1.23;1.23;;;;;;;2.14;100.00;100579.22;5073425;28;20207;-83
2023/01/12 05:04:36;;;;;;;0.50;0.50;;;;;;;2.13;100.00;100597.94;5088166;28;20558;-83
2023/01/12 05:07:03;;;;;;;0.60;0.60;;;;;;;2.07;100.00;100597.56;5053113;28;20202;-83
2023/01/12 05:12:15;;;;;;;0.70;0.70;;;;;;;2.04;100.00;100602.53;5078910;28;20209;-84
2023/01/12 05:14:42;;;;;;;0.97;0.97;;;;;;;1.99;100.00;100604.84;5088932;28;20630;-80
2023/01/12 05:17:09;;;;;;;0.60;0.60;;;;;;;1.85;100.00;100604.84;5075307;28;20203;-81
2023/01/12 05:19:36;;;;;;;0.70;0.70;;;;;;;1.94;100.00;100616.47;5071765;28;20226;-83
2023/01/12 05:22:02;;;;;;;0.80;0.80;;;;;;;2.02;100.00;100619.47;5071727;28;20669;-83
2023/01/12 05:24:31;;;;;;;0.70;0.70;;;;;;;2.06;100.00;100620.53;5052886;28;20271;-84
2023/01/12 05:26:59;;;;;;;0.57;0.57;;;;;;;1.84;100.00;100591.16;5077567;28;20342;-84
2023/01/12 05:29:26;;;;;;;0.90;0.90;;;;;;;1.99;100.00;100619.28;5072408;28;20640;-84
2023/01/12 05:31:53;;;;;;;0.60;0.60;;;;;;;2.03;100.00;100631.47;5020244;28;20199;-77
2023/01/12 05:34:20;;;;;;;3.33;3.13;;;;;;;2.09;100.00;100616.47;5081088;28;20626;-80
2023/01/12 05:36:47;;;;;;;0.90;0.90;;;;;;;1.95;100.00;100627.59;5035502;28;20218;-78
2023/01/12 05:39:14;;;;;;;0.60;0.60;;;;;;;1.90;100.00;100631.53;5075239;28;20223;-78
2023/01/12 05:43:49;;;;;;;0.67;0.67;;;;;;;1.93;100.00;100601.91;5019786;28;20624;-79
2023/01/12 05:44:28;;;;;;;6.13;2.67;;;;;;;2.03;100.00;100634.03;5072318;28;20201;-78
2023/01/12 05:46:55;;;;;;;0.67;0.67;;;;;;;2.09;100.00;100631.81;5091275;28;20592;-79
2023/01/12 05:49:21;;;;;;;0.70;0.70;;;;;;;2.15;100.00;100616.81;5091446;28;20260;-83
2023/01/12 05:51:48;;;;;;;2.70;2.50;;;;;;;2.36;100.00;100605.22;5091610;28;20206;-78
2023/01/12 05:54:15;;;;;;;0.73;0.73;;;;;;;2.24;100.00;100632.69;5035978;28;20210;-78
2023/01/12 05:56:43;;;;;;;0.80;0.80;;;;;;;2.35;100.00;100621.38;5077935;28;20202;-82
2023/01/12 05:59:11;;;;;;;0.60;0.60;;;;;;;2.18;100.00;100616.09;5081870;28;20250;-81
2023/01/12 06:01:39;;;;;;;0.60;0.60;;;;;;;2.25;100.00;100629.31;5083422;28;20198;-75
2023/01/12 06:04:06;;;;;;;0.70;0.70;;;;;;;2.39;100.00;100633.53;5072490;28;20193;-81
2023/01/12 06:06:32;;;;;;;0.70;0.70;;;;;;;2.34;100.00;100637.53;5082163;28;20198;-81
2023/01/12 06:09:00;;;;;;;0.60;0.60;;;;;;;2.29;100.00;100622.69;5073760;28;20283;-84
2023/01/12 06:14:16;;;;;;;0.53;0.53;;;;;;;2.54;100.00;100627.50;5085289;28;20739;-78
2023/01/12 06:16:43;;;;;;;0.47;0.47;;;;;;;2.61;100.00;100629.59;5082717;28;20673;-77
2023/01/12 06:19:11;;;;;;;0.60;0.60;;;;;;;2.61;100.00;100630.47;5032792;28;20275;-80
2023/01/12 06:21:39;;;;;;;0.70;0.70;;;;;;;2.58;100.00;100634.53;5002057;28;20207;-80
2023/01/12 06:24:06;;;;;;;0.60;0.60;;;;;;;2.66;100.00;100633.31;5084359;28;20209;-79
2023/01/12 06:26:33;;;;;;;0.70;0.70;;;;;;;2.64;100.00;100619.56;5070706;28;20199;-84
2023/01/12 06:29:00;;;;;;;0.70;0.70;;;;;;;2.83;100.00;100635.97;5076737;28;20301;-82
2023/01/12 06:31:28;;;;;;;0.40;0.40;;;;;;;2.73;100.00;100632.84;5087339;28;20198;-81
2023/01/12 06:33:55;;;;;;;0.70;0.70;;;;;;;2.71;100.00;100626.75;5073622;28;20624;-82
2023/01/12 06:36:21;;;;;;;0.53;0.53;;;;;;;2.81;100.00;100624.78;5029806;28;20680;-83
2023/01/12 06:38:48;;;;;;;0.53;0.53;;;;;;;3.00;100.00;100653.13;5078720;28;20251;-84
2023/01/12 06:43:56;;;;;;;0.60;0.60;;;;;;;3.06;100.00;100642.34;5086951;28;20210;-83
2023/01/12 06:46:22;;;;;;;0.70;0.70;;;;;;;2.64;100.00;100571.78;5081679;28;20217;-81
2023/01/12 06:48:51;;;;;;;0.60;0.60;;;;;;;3.28;100.00;100654.63;5077151;28;20210;-84
2023/01/12 06:51:17;;;;;;;0.83;0.83;;;;;;;3.14;100.00;100618.00;5073082;28;20190;-82
2023/01/12 06:53:44;;;;;;;0.77;0.77;;;;;;;3.44;100.00;100655.50;5079132;28;20199;-85
2023/01/12 06:56:11;;;;;;;0.63;0.63;;;;;;;3.49;100.00;100672.00;5070165;28;20199;-83
2023/01/12 06:58:38;;;;;;;0.70;0.70;;;;;;;3.49;100.00;100679.72;5072835;28;20687;-85
2023/01/12 07:01:05;;;;;;;0.70;0.70;;;;;;;3.49;100.00;100691.63;5074530;28;20700;-83
2023/01/12 07:03:31;;;;;;;0.73;0.73;;;;;;;3.40;100.00;100694.59;5078376;28;20210;-83
2023/01/12 07:06:00;;;;;;;0.70;0.70;;;;;;;3.36;100.00;100653.31;5078789;28;20218;-85
2023/01/12 07:08:27;;;;;;;0.60;0.60;;;;;;;3.64;100.00;100686.44;5022783;28;20234;-83
2023/01/12 07:10:54;;;;;;;0.60;0.60;;;;;;;3.72;100.00;100690.25;5076583;28;20230;-83
2023/01/12 07:13:21;;;;;;;0.60;0.60;;;;;;;3.69;100.00;100690.09;5021924;28;20619;-76
2023/01/12 07:15:49;;;;;;;0.70;0.70;;;;;;;3.80;100.00;100696.66;5084080;28;20244;-87
2023/01/12 07:18:16;;;;;;;0.63;0.63;;;;;;;3.81;100.00;100698.44;5093413;28;20198;-79
2023/01/12 07:20:44;;;;;;;0.70;0.70;;;;;;;3.81;100.00;100696.75;5087446;28;20245;-79
2023/01/12 07:23:12;;;;;;;0.53;0.53;;;;;;;3.88;100.00;100703.06;5079614;28;20223;-79
2023/01/12 07:25:39;;;;;;;0.70;0.70;;;;;;;3.90;100.00;100704.91;5076949;28;20216;-82
2023/01/12 07:28:06;;;;;;;0.60;0.60;;;;;;;3.97;100.00;100708.66;5077728;28;20248;-83
2023/01/12 07:30:33;;;;;;;0.60;0.60;;;;;;;4.12;100.00;100709.44;5078171;28;20597;-81
2023/01/12 07:33:05;;;;;;;1.90;1.80;;;;;;;4.20;100.00;100717.53;5084924;28;20226;-81
2023/01/12 07:35:32;;;;;;;3.63;3.33;;;;;;;4.09;100.00;100727.25;5052529;28;20229;-80
2023/01/12 07:37:59;;;;;;;4.60;4.30;;;;;;;4.20;100.00;100715.84;5078176;28;20195;-79
2023/01/12 07:40:27;;;;;;;0.77;0.77;;;;;;;4.28;100.00;100704.25;5080798;28;20235;-80
2023/01/12 07:42:58;;;;;;;0.80;0.80;;;;;;;4.30;100.00;100704.34;5076356;28;20264;-78
2023/01/12 07:45:24;;;;;;;1.00;1.00;;;;;;;4.48;100.00;100715.53;5074915;28;20202;-79
2023/01/12 07:47:53;;;;;;;0.70;0.70;;;;;;;4.41;100.00;100704.09;5082847;28;20225;-76
2023/01/12 07:50:20;;;;;;;0.70;0.70;;;;;;;4.33;100.00;100725.03;5078251;28;20237;-79
2023/01/12 07:52:46;;;;;;;0.67;0.67;;;;;;;4.49;100.00;100728.44;5075943;28;20603;-77
2023/01/12 07:55:15;;;;;;;0.70;0.70;;;;;;;4.24;100.00;100735.75;5074769;28;20280;-81
2023/01/12 07:57:43;;;;;;;0.90;0.90;;;;;;;4.16;100.00;100734.47;5084086;28;20226;-79
2023/01/12 08:00:12;;;;;;;0.60;0.60;;;;;;;4.15;100.00;100735.25;5074809;28;20743;-78
2023/01/12 08:02:39;;;;;;;0.80;0.80;;;;;;;4.06;100.00;100739.94;4984317;28;20227;-79
2023/01/12 08:05:06;;;;;;;0.60;0.60;;;;;;;4.04;100.00;100745.78;5082594;28;20206;-81
2023/01/12 08:07:33;;;;;;;0.80;0.80;;;;;;;4.08;100.00;100737.44;5080142;28;20621;-77
2023/01/12 08:09:59;;;;;;;0.60;0.60;;;;;;;3.89;100.00;100740.72;5076106;28;20667;-78
2023/01/12 08:12:29;;;;;;;1.23;1.23;;;;;;;3.95;100.00;100720.53;5078738;28;20207;-77
2023/01/12 08:14:59;;;;;;;0.70;0.70;;;;;;;4.00;100.00;100729.34;5072612;28;20282;-85
2023/01/12 08:17:26;;;;;;;0.80;0.80;;;;;;;4.21;100.00;100750.09;5084125;28;20206;-82
2023/01/12 08:19:57;;;;;;;0.70;0.70;;;;;;;4.28;100.00;100742.75;5073533;28;20230;-82
2023/01/12 08:22:29;;;;;;;0.50;0.50;;;;;;;4.45;100.00;100747.06;5082539;28;20199;-80
2023/01/12 08:25:01;;;;;;;0.63;0.63;;;;;;;4.43;100.00;100743.53;5088187;28;20267;-82
2023/01/12 08:27:32;;;;;;;0.70;0.70;;;;;;;4.60;100.00;100758.91;5077571;28;20203;-85
2023/01/12 08:30:03;;;;;;;0.50;0.50;;;;;;;4.54;100.00;100764.59;5090551;28;20210;-83
2023/01/12 08:32:30;;;;;;;0.60;0.60;;;;;;;4.50;100.00;100765.25;5085493;28;20202;-84
2023/01/12 08:35:00;;;;;;;0.70;0.70;;;;;;;4.39;100.00;100762.16;5081738;28;20313;-84
2023/01/12 08:37:28;;;;;;;0.50;0.50;;;;;;;4.36;100.00;100769.69;5078366;28;20741;-81
2023/01/12 08:39:55;;;;;;;0.50;0.50;;;;;;;3.66;100.00;100607.91;5076707;28;20310;-80
2023/01/12 08:42:23;;;;;;;0.70;0.70;;;;;;;4.55;100.00;100744.94;5071982;28;20273;-83
2023/01/12 08:44:50;;;;;;;0.80;0.80;;;;;;;4.59;100.00;100764.84;5072132;28;20210;-81
2023/01/12 08:47:20;;;;;;;0.90;0.90;;;;;;;4.42;100.00;100776.84;5088259;28;20203;-82
2023/01/12 08:49:47;;;;;;;1.03;1.03;;;;;;;4.30;100.00;100766.84;5073181;28;20225;-81
2023/01/12 08:52:15;;;;;;;0.60;0.60;;;;;;;4.29;100.00;100785.59;5086445;28;20195;-88
2023/01/12 08:54:42;;;;;;;3.70;1.90;;;;;;;4.22;100.00;100782.63;5083519;28;20262;-85
2023/01/12 08:57:09;;;;;;;5.73;2.10;;;;;;;4.27;100.00;100782.09;5075180;28;20322;-78
2023/01/12 08:59:36;;;;;;;1.40;1.40;;;;;;;4.33;100.00;100782.38;5078764;28;20206;-80
2023/01/12 09:02:03;;;;;;;0.73;0.73;;;;;;;4.33;100.00;100784.97;5081270;28;20214;-81
2023/01/12 09:04:31;;;;;;;1.73;1.63;;;;;;;4.41;100.00;100782.78;5077926;28;20212;-79
2023/01/12 09:06:58;;;;;;;0.60;0.60;;;;;;;4.27;100.00;100776.97;5077793;28;20213;-79
2023/01/12 09:09:25;;;;;;;1.47;1.47;;;;;;;4.22;100.00;100782.63;5071904;28;20198;-82
2023/01/12 09:11:52;;;;;;;0.70;0.70;;;;;;;4.01;100.00;100772.16;5074429;28;20234;-78
2023/01/12 09:14:19;;;;;;;0.60;0.60;;;;;;;3.93;100.00;100746.09;5084868;28;20202;-81
2023/01/12 09:16:45;;;;;;;5.70;2.50;;;;;;;4.17;100.00;100769.59;5084950;28;20194;-79
2023/01/12 09:19:12;;;;;;;0.70;0.70;;;;;;;3.93;100.00;100712.75;5047003;28;20202;-85
2023/01/12 09:21:41;;;;;;;0.70;0.70;;;;;;;4.41;100.00;100775.97;5084383;28;20225;-85
2023/01/12 09:24:09;;;;;;;0.70;0.70;;;;;;;4.49;100.00;100764.38;5081323;28;20653;-80
2023/01/12 09:26:38;;;;;;;0.70;0.70;;;;;;;4.49;100.00;100738.69;5089620;28;20202;-84
2023/01/12 09:29:06;;;;;;;0.50;0.50;;;;;;;4.49;100.00;100772.06;5091347;28;20210;-84
2023/01/12 09:31:34;;;;;;;0.70;0.70;;;;;;;4.44;100.00;100768.41;5089995;28;20212;-82
2023/01/12 09:34:01;;;;;;;0.80;0.80;;;;;;;4.08;100.00;100743.44;5085154;28;20202;-82
2023/01/12 09:36:30;;;;;;;0.70;0.70;;;;;;;3.68;100.00;100683.19;5035095;28;20210;-79
2023/01/12 09:38:58;;;;;;;0.77;0.77;;;;;;;4.22;100.00;100768.13;5081154;28;20194;-83
2023/01/12 09:47:13;;;;;;;0.60;0.60;;;;;;;4.18;100.00;100750.81;5001605;28;20713;-78
2023/01/12 09:49:44;;;;;;;0.60;0.60;;;;;;;4.25;100.00;100752.00;4993904;28;20213;-79
2023/01/12 09:52:16;;;;;;;0.70;0.70;;;;;;;4.21;100.00;100742.41;4960699;28;20247;-79
2023/01/12 09:54:47;;;;;;;0.60;0.60;;;;;;;4.28;100.00;100752.19;5006603;28;20691;-77
2023/01/12 09:57:43;;;;;;;0.73;0.73;;;;;;;4.19;100.00;100726.91;5004319;28;20201;-82
2023/01/12 10:00:12;;;;;;;0.70;0.70;;;;;;;4.37;100.00;100745.81;4998547;28;20234;-76
2023/01/12 10:02:45;;;;;;;0.50;0.50;;;;;;;4.46;100.00;100741.13;5000735;28;20212;-77
2023/01/12 10:05:25;;;;;;;0.60;0.60;;;;;;;4.48;100.00;100742.09;5002260;28;20204;-81
2023/01/12 10:07:55;;;;;;;2.73;2.60;;;;;;;4.50;100.00;100745.59;4996936;28;20205;-78
2023/01/12 10:10:24;;;;;;;3.77;3.40;;;;;;;4.32;100.00;100729.28;5007236;28;20743;-79
2023/01/12 10:12:56;;;;;;;2.57;2.40;;;;;;;4.38;100.00;100737.31;5001087;28;20209;-78
2023/01/12 10:15:38;;;;;;;0.97;0.97;;;;;;;4.37;100.00;100748.38;5008272;28;20204;-82
2023/01/12 10:18:12;;;;;;;0.90;0.90;;;;;;;4.77;100.00;100725.53;5002089;28;20591;-80
2023/01/12 10:20:40;;;;;;;0.50;0.50;;;;;;;4.68;100.00;100729.31;4995362;28;20236;-80
2023/01/12 10:23:15;;;;;;;0.57;0.57;;;;;;;4.68;100.00;100744.75;5009821;28;20225;-80
2023/01/12 10:25:46;;;;;;;0.80;0.80;;;;;;;4.80;100.00;100745.34;5073138;28;20206;-80
2023/01/12 10:28:18;;;;;;;0.63;0.63;;;;;;;4.80;100.00;100753.94;5073371;28;20206;-82
2023/01/12 10:30:45;;;;;;;0.50;0.50;;;;;;;4.74;100.00;100751.09;5073072;28;20697;-81
2023/01/12 10:33:15;;;;;;;0.60;0.60;;;;;;;4.70;100.00;100735.44;5073947;28;20263;-79
2023/01/12 10:35:53;;;;;;;0.60;0.60;;;;;;;4.79;100.00;100734.19;5088833;28;20202;-80
2023/01/12 10:38:22;;;;;;;0.80;0.80;;;;;;;4.76;100.00;100749.44;5073556;28;20267;-80
2023/01/12 10:41:15;;;;;;;0.60;0.60;;;;;;;4.77;100.00;100729.78;5072173;28;20218;-80
2023/01/12 10:43:44;;;;;;;0.50;0.50;;;;;;;4.91;100.00;100734.78;5073001;28;20690;-82
2023/01/12 10:46:14;;;;;;;0.60;0.60;;;;;;;4.45;100.00;100652.09;5081151;28;20198;-80
2023/01/12 10:48:42;;;;;;;1.00;1.00;;;;;;;4.69;100.00;100715.69;5082594;28;20194;-83
2023/01/12 10:51:20;;;;;;;0.60;0.60;;;;;;;4.79;100.00;100726.47;5083356;28;20235;-80
2023/01/12 10:53:51;;;;;;;3.13;2.90;;;;;;;4.79;100.00;100733.31;5082828;28;20209;-83
2023/01/12 10:56:26;;;;;;;0.63;0.63;;;;;;;4.69;100.00;100710.56;5083388;28;20201;-84
2023/01/12 10:58:56;;;;;;;0.63;0.63;;;;;;;4.69;100.00;100731.97;5081939;28;20201;-88
2023/01/12 11:01:23;;;;;;;0.57;0.57;;;;;;;4.65;100.00;100714.66;5083090;28;20249;-85
2023/01/12 11:03:50;;;;;;;1.47;1.43;;;;;;;4.43;100.00;100712.72;5082251;28;20198;-86
2023/01/12 11:06:25;;;;;;;0.80;0.80;;;;;;;4.60;100.00;100721.28;5082245;28;20626;-83
2023/01/12 11:08:52;;;;;;;0.70;0.70;;;;;;;4.67;100.00;100722.44;5081626;28;20198;-84
2023/01/12 11:11:30;;;;;;;0.60;0.60;;;;;;;4.95;100.00;100718.72;5084214;28;20766;-86
2023/01/12 11:13:59;;;;;;;0.50;0.50;;;;;;;4.94;100.00;100716.06;5078881;28;20199;-83
2023/01/12 11:16:31;;;;;;;1.30;1.30;;;;;;;4.90;100.00;100703.88;5080610;28;20215;-81
2023/01/12 11:19:13;;;;;;;1.70;1.70;;;;;;;4.72;100.00;100715.84;5082232;28;20194;-83
2023/01/12 11:21:44;;;;;;;2.03;1.83;;;;;;;4.55;100.00;100698.72;5079586;28;20250;-78
2023/01/12 11:24:17;;;;;;;1.53;1.53;;;;;;;4.62;100.00;100721.34;5081407;28;20194;-83
2023/01/12 11:26:50;;;;;;;1.07;1.07;;;;;;;4.65;100.00;100718.91;5083838;28;20990;-81
2023/01/12 11:29:34;;;;;;;0.60;0.60;;;;;;;4.52;100.00;100681.50;5081951;28;20198;-80
2023/01/12 11:32:10;;;;;;;0.80;0.80;;;;;;;4.79;100.00;100697.34;5083479;28;20222;-81
2023/01/12 11:34:41;;;;;;;2.20;2.10;;;;;;;4.72;100.00;100716.72;5082060;28;20198;-81
2023/01/12 11:37:12;;;;;;;0.80;0.80;;;;;;;4.90;100.00;100716.72;5082182;28;20661;-79
2023/01/12 11:39:40;;;;;;;0.80;0.80;;;;;;;4.93;100.00;100719.44;5027018;28;20226;-76
2023/01/12 11:45:04;;;;;;;0.60;0.60;;;;;;;4.88;100.00;100702.94;5020433;28;21324;-79
2023/01/12 11:47:35;;;;;;;0.77;0.77;;;;;;;4.91;100.00;100709.09;5014020;28;20711;-78
2023/01/12 11:50:10;;;;;;;0.60;0.60;;;;;;;4.85;100.00;100698.50;4968785;28;20589;-77
2023/01/12 11:52:37;;;;;;;0.63;0.63;;;;;;;4.95;100.00;100725.53;5015719;28;20209;-78
2023/01/12 11:55:05;;;;;;;0.70;0.70;;;;;;;5.02;100.00;100717.31;4984108;28;20205;-81
2023/01/12 11:57:52;;;;;;;0.77;0.77;;;;;;;4.95;100.00;100713.56;4998931;28;20592;-81
2023/01/12 12:00:35;;;;;;;0.60;0.60;;;;;;;5.18;100.00;100714.63;4998633;28;20289;-83
2023/01/12 12:03:19;;;;;;;0.60;0.60;;;;;;;5.30;100.00;100714.31;5009853;28;20212;-79
2023/01/12 12:05:52;;;;;;;0.73;0.73;;;;;;;5.23;100.00;100715.72;5010528;28;20208;-80
2023/01/12 12:08:34;;;;;;;0.80;0.80;;;;;;;5.33;100.00;100725.63;5007665;28;20203;-83